createdAt,value
2018-08-22T00:00:38.009Z,5.47
2018-08-22T00:03:06.443Z,5.77
2018-08-22T00:05:34.418Z,5.93
2018-08-22T00:08:02.427Z,5.07
2018-08-22T00:10:30.489Z,5.63
2018-08-22T00:12:58.556Z,5.70
2018-08-22T00:15:26.487Z,5.40
2018-08-22T00:17:54.471Z,6.10
2018-08-22T00:20:22.361Z,5.57
2018-08-22T00:22:50.278Z,5.87
2018-08-22T00:25:18.299Z,5.50
2018-08-22T00:27:46.270Z,5.73
2018-08-22T00:30:14.322Z,5.63
2018-08-22T00:32:42.372Z,6.13
2018-08-22T00:35:10.421Z,5.47
2018-08-22T00:37:38.396Z,6.17
2018-08-22T00:40:06.495Z,5.90
2018-08-22T00:42:34.462Z,6.20
2018-08-22T00:45:02.365Z,5.83
2018-08-22T00:47:30.180Z,6.30
2018-08-22T00:49:58.061Z,6.27
2018-08-22T00:52:25.878Z,6.17
2018-08-22T00:54:53.668Z,6.07
2018-08-22T00:57:21.579Z,5.60
2018-08-22T00:59:49.636Z,6.23
2018-08-22T01:02:17.497Z,6.77
2018-08-22T01:04:45.412Z,6.10
2018-08-22T01:07:13.339Z,6.00
2018-08-22T01:09:41.437Z,5.90
2018-08-22T01:12:09.596Z,5.70
2018-08-22T01:14:37.921Z,6.00
2018-08-22T01:17:06.793Z,5.83
2018-08-22T01:19:34.998Z,6.17
2018-08-22T01:22:02.971Z,6.27
2018-08-22T01:24:30.880Z,5.50
2018-08-22T01:26:58.878Z,5.77
2018-08-22T01:29:26.823Z,5.63
2018-08-22T01:31:54.673Z,5.07
2018-08-22T01:34:22.481Z,5.90
2018-08-22T01:36:50.482Z,6.10
2018-08-22T01:39:18.670Z,6.10
2018-08-22T01:41:46.495Z,5.93
2018-08-22T01:44:14.362Z,6.63
2018-08-22T01:46:42.343Z,6.07
2018-08-22T01:49:10.454Z,6.20
2018-08-22T01:51:38.614Z,6.47
2018-08-22T01:54:07.167Z,6.70
2018-08-22T01:56:35.288Z,6.43
2018-08-22T01:59:03.220Z,6.90
2018-08-22T02:01:31.082Z,6.20
2018-08-22T02:03:59.022Z,6.40
2018-08-22T02:06:27.018Z,6.10
2018-08-22T02:08:54.967Z,6.17
2018-08-22T02:11:22.976Z,6.77
2018-08-22T02:13:50.833Z,7.33
2018-08-22T02:16:18.743Z,6.90
2018-08-22T02:18:46.648Z,5.87
2018-08-22T02:21:14.720Z,6.03
2018-08-22T02:23:42.786Z,6.80
2018-08-22T02:26:10.878Z,6.97
2018-08-22T02:28:38.840Z,6.03
2018-08-22T02:31:07.209Z,6.23
2018-08-22T02:33:35.294Z,6.43
2018-08-22T02:36:03.399Z,6.27
2018-08-22T02:38:31.255Z,6.67
2018-08-22T02:40:59.171Z,6.40
2018-08-22T02:43:27.122Z,6.40
2018-08-22T02:45:54.978Z,5.57
2018-08-22T02:48:22.810Z,6.63
2018-08-22T02:50:50.702Z,6.63
2018-08-22T02:53:18.721Z,7.20
2018-08-22T02:55:46.719Z,7.03
2018-08-22T02:58:14.779Z,6.53
2018-08-22T03:00:42.859Z,6.87
2018-08-22T03:03:10.979Z,6.77
2018-08-22T03:05:39.157Z,6.63
2018-08-22T03:08:07.579Z,6.83
2018-08-22T03:10:35.782Z,6.50
2018-08-22T03:13:04.660Z,6.57
2018-08-22T03:15:32.574Z,6.80
2018-08-22T03:18:00.496Z,6.53
2018-08-22T03:20:28.464Z,6.37
2018-08-22T03:22:56.479Z,6.60
2018-08-22T03:25:24.341Z,7.10
2018-08-22T03:27:52.567Z,6.70
2018-08-22T03:30:20.392Z,6.73
2018-08-22T03:32:48.362Z,6.50
2018-08-22T03:35:16.375Z,6.63
2018-08-22T03:37:52.067Z,6.63
2018-08-22T03:40:20.000Z,6.53
2018-08-22T03:42:47.884Z,6.83
2018-08-22T03:45:16.083Z,6.33
2018-08-22T03:47:44.301Z,6.50
2018-08-22T03:50:12.428Z,6.47
2018-08-22T03:52:40.578Z,6.50
2018-08-22T03:55:08.796Z,6.50
2018-08-22T03:57:37.397Z,6.37
2018-08-22T04:00:05.816Z,6.07
2018-08-22T04:02:33.724Z,6.37
2018-08-22T04:05:01.671Z,6.50
2018-08-22T04:07:29.700Z,6.80
2018-08-22T04:09:57.615Z,7.50
2018-08-22T04:12:25.579Z,7.07
2018-08-22T04:14:53.769Z,6.97
2018-08-22T04:17:26.275Z,6.70
2018-08-22T04:19:54.138Z,6.90
2018-08-22T04:22:22.106Z,6.57
2018-08-22T04:24:50.262Z,6.37
2018-08-22T04:27:18.217Z,6.73
2018-08-22T04:29:46.568Z,7.10
2018-08-22T04:32:14.994Z,6.43
2018-08-22T04:34:43.319Z,6.80
2018-08-22T04:37:11.643Z,6.40
2018-08-22T04:39:40.004Z,6.83
2018-08-22T04:42:08.501Z,8.10
2018-08-22T04:44:36.955Z,6.77
2018-08-22T04:47:05.107Z,7.33
2018-08-22T04:49:33.115Z,7.80
2018-08-22T04:52:01.103Z,7.20
2018-08-22T04:54:28.950Z,7.80
2018-08-22T04:56:56.914Z,7.37
2018-08-22T04:59:24.849Z,7.00
2018-08-22T05:01:58.323Z,7.40
2018-08-22T05:04:26.404Z,7.50
2018-08-22T05:06:54.138Z,7.87
2018-08-22T05:09:22.088Z,7.13
2018-08-22T05:11:50.359Z,7.30
2018-08-22T05:14:18.196Z,7.17
2018-08-22T05:16:46.210Z,7.77
2018-08-22T05:19:14.513Z,7.13
2018-08-22T05:21:42.702Z,7.27
2018-08-22T05:24:11.650Z,6.83
2018-08-22T05:26:39.973Z,6.20
2018-08-22T05:29:08.495Z,6.60
2018-08-22T05:31:36.910Z,6.50
2018-08-22T05:34:05.163Z,7.07
2018-08-22T05:36:33.121Z,7.07
2018-08-22T05:39:01.115Z,6.33
2018-08-22T05:41:29.153Z,6.70
2018-08-22T05:43:57.076Z,8.40
2018-08-22T05:46:25.113Z,6.53
2018-08-22T05:48:53.047Z,6.40
2018-08-22T05:51:21.211Z,6.77
2018-08-22T05:53:49.126Z,7.13
2018-08-22T05:56:17.518Z,6.83
2018-08-22T05:58:45.746Z,6.60
2018-08-22T06:01:14.281Z,9.27
2018-08-22T06:03:42.539Z,8.50
2018-08-22T06:06:10.771Z,8.90
2018-08-22T06:08:39.220Z,7.87
2018-08-22T06:11:07.689Z,8.53
2018-08-22T06:13:36.285Z,8.43
2018-08-22T06:16:04.444Z,8.20
2018-08-22T06:18:32.406Z,9.27
2018-08-22T06:21:00.308Z,8.13
2018-08-22T06:23:28.343Z,9.43
2018-08-22T06:25:56.302Z,8.07
2018-08-22T06:28:24.331Z,8.23
2018-08-22T06:30:52.807Z,8.80
2018-08-22T06:33:20.708Z,9.00
2018-08-22T06:35:48.662Z,8.00
2018-08-22T06:38:16.911Z,7.63
2018-08-22T06:40:45.071Z,8.20
2018-08-22T06:43:13.267Z,7.33
2018-08-22T06:45:41.427Z,7.00
2018-08-22T06:48:09.706Z,7.00
2018-08-22T06:50:38.119Z,8.03
2018-08-22T06:53:06.290Z,6.43
2018-08-22T06:55:34.384Z,7.13
2018-08-22T06:58:02.981Z,7.20
2018-08-22T07:00:30.945Z,7.50
2018-08-22T07:02:58.852Z,7.13
2018-08-22T07:05:26.967Z,6.83
2018-08-22T07:07:54.949Z,6.87
2018-08-22T07:10:22.899Z,7.03
2018-08-22T07:12:50.992Z,6.50
2018-08-22T07:15:18.921Z,6.40
2018-08-22T07:17:46.856Z,6.00
2018-08-22T07:20:15.059Z,6.00
2018-08-22T07:22:43.104Z,6.20
2018-08-22T07:25:11.507Z,6.80
2018-08-22T07:27:39.729Z,6.27
2018-08-22T07:30:08.103Z,5.43
2018-08-22T07:32:36.472Z,5.47
2018-08-22T07:35:05.356Z,5.10
2018-08-22T07:37:33.384Z,5.60
2018-08-22T07:40:01.366Z,5.03
2018-08-22T07:42:29.354Z,5.10
2018-08-22T07:44:57.290Z,5.30
2018-08-22T07:47:25.255Z,4.97
2018-08-22T07:49:53.272Z,5.00
2018-08-22T07:52:22.386Z,4.90
2018-08-22T07:54:50.424Z,4.60
2018-08-22T07:57:21.079Z,4.90
2018-08-22T07:59:49.602Z,5.17
2018-08-22T08:02:17.656Z,4.80
2018-08-22T08:04:45.739Z,4.33
2018-08-22T08:07:14.119Z,4.43
2018-08-22T08:09:42.246Z,4.60
2018-08-22T08:12:10.353Z,4.80
2018-08-22T08:14:38.768Z,5.43
2018-08-22T08:17:07.013Z,5.00
2018-08-22T08:19:35.204Z,4.70
2018-08-22T08:22:03.416Z,5.10
2018-08-22T08:24:33.176Z,4.63
2018-08-22T08:27:01.204Z,4.87
2018-08-22T08:29:29.289Z,4.70
2018-08-22T08:31:57.564Z,5.20
2018-08-22T08:34:28.267Z,5.17
2018-08-22T08:36:56.571Z,4.80
2018-08-22T08:39:24.831Z,5.07
2018-08-22T08:41:53.009Z,4.80
2018-08-22T08:44:21.089Z,4.53
2018-08-22T08:46:49.364Z,4.77
2018-08-22T08:49:17.499Z,5.20
2018-08-22T08:52:00.957Z,4.80
2018-08-22T08:54:29.727Z,4.53
2018-08-22T08:56:58.114Z,4.43
2018-08-22T08:59:26.280Z,4.67
2018-08-22T09:01:54.413Z,5.00
2018-08-22T09:04:22.449Z,4.80
2018-08-22T09:06:50.662Z,4.87
2018-08-22T09:09:19.175Z,4.97
2018-08-22T09:12:03.313Z,4.87
2018-08-22T09:14:31.611Z,4.70
2018-08-22T09:17:00.077Z,4.80
2018-08-22T09:19:28.265Z,4.80
2018-08-22T09:21:56.852Z,4.57
2018-08-22T09:24:25.237Z,4.87
2018-08-22T09:26:53.572Z,4.80
2018-08-22T09:29:21.659Z,4.60
2018-08-22T09:31:49.752Z,4.67
2018-08-22T09:34:17.838Z,4.47
2018-08-22T09:36:45.916Z,5.30
2018-08-22T09:39:14.410Z,5.40
2018-08-22T09:41:43.062Z,4.60
2018-08-22T09:44:11.354Z,4.90
2018-08-22T09:46:40.410Z,4.70
2018-08-22T09:49:09.089Z,4.90
2018-08-22T09:51:37.362Z,5.10
2018-08-22T09:54:05.648Z,4.67
2018-08-22T09:56:33.578Z,4.60
2018-08-22T09:59:01.529Z,4.67
2018-08-22T10:01:34.881Z,5.03
2018-08-22T10:04:02.859Z,4.80
2018-08-22T10:06:36.134Z,4.77
2018-08-22T10:09:11.661Z,4.43
2018-08-22T10:11:39.979Z,4.70
2018-08-22T10:14:08.334Z,4.80
2018-08-22T10:16:36.834Z,4.10
2018-08-22T10:19:06.572Z,4.47
2018-08-22T10:21:34.844Z,4.50
2018-08-22T10:24:02.881Z,4.60
2018-08-22T10:26:30.929Z,4.23
2018-08-22T10:28:58.902Z,4.10
2018-08-22T10:31:27.104Z,3.77
2018-08-22T10:33:55.455Z,3.73
2018-08-22T10:36:23.494Z,3.70
2018-08-22T10:38:51.571Z,4.00
2018-08-22T10:41:19.599Z,4.37
2018-08-22T10:43:47.631Z,4.30
2018-08-22T10:46:15.639Z,4.07
2018-08-22T10:48:43.909Z,3.90
2018-08-22T10:51:12.038Z,4.30
2018-08-22T10:53:40.139Z,3.57
2018-08-22T10:56:08.591Z,4.10
2018-08-22T10:58:37.110Z,3.97
2018-08-22T11:01:06.194Z,3.80
2018-08-22T11:03:34.171Z,3.90
2018-08-22T11:06:02.109Z,3.70
2018-08-22T11:08:29.950Z,3.63
2018-08-22T11:10:57.815Z,3.73
2018-08-22T11:13:25.938Z,3.83
2018-08-22T11:15:53.964Z,3.87
2018-08-22T11:18:21.852Z,3.73
2018-08-22T11:20:52.692Z,3.87
2018-08-22T11:23:32.758Z,4.03
2018-08-22T11:26:12.646Z,3.90
2018-08-22T11:28:51.764Z,3.90
2018-08-22T11:31:30.967Z,3.83
2018-08-22T11:34:10.260Z,3.80
2018-08-22T11:36:37.515Z,3.70
2018-08-22T11:39:07.379Z,4.10
2018-08-22T11:41:35.525Z,3.97
2018-08-22T11:44:03.610Z,3.73
2018-08-22T11:46:31.551Z,3.73
2018-08-22T11:48:59.372Z,3.63
2018-08-22T11:51:28.392Z,3.60
2018-08-22T11:53:56.356Z,3.93
2018-08-22T11:56:24.279Z,3.60
2018-08-22T11:58:52.150Z,3.60
2018-08-22T12:01:20.212Z,3.70
2018-08-22T12:03:48.172Z,4.10
2018-08-22T12:06:16.251Z,3.60
2018-08-22T12:08:44.207Z,3.33
2018-08-22T12:11:12.538Z,5.27
2018-08-22T12:13:40.878Z,4.00
2018-08-22T12:16:09.418Z,3.90
2018-08-22T12:18:37.837Z,3.80
2018-08-22T12:21:06.526Z,3.70
2018-08-22T12:23:34.590Z,3.30
2018-08-22T12:26:02.546Z,3.93
2018-08-22T12:28:30.526Z,3.70
2018-08-22T12:30:58.452Z,3.50
2018-08-22T12:33:26.549Z,3.57
2018-08-22T12:35:54.542Z,4.40
2018-08-22T12:38:22.413Z,3.77
2018-08-22T12:40:50.325Z,4.10
2018-08-22T12:43:18.674Z,3.90
2018-08-22T12:45:46.816Z,5.10
2018-08-22T12:48:14.924Z,4.00
2018-08-22T12:50:43.117Z,3.90
2018-08-22T12:53:11.439Z,3.87
2018-08-22T12:55:39.921Z,3.93
2018-08-22T12:58:08.110Z,3.67
2018-08-22T13:00:36.725Z,4.00
2018-08-22T13:03:05.015Z,4.27
2018-08-22T13:05:32.954Z,3.97
2018-08-22T13:08:00.852Z,4.00
2018-08-22T13:10:28.751Z,3.90
2018-08-22T13:12:56.684Z,4.10
2018-08-22T13:15:24.638Z,3.83
2018-08-22T13:17:52.519Z,4.00
2018-08-22T13:20:20.420Z,3.90
2018-08-22T13:22:48.387Z,3.90
2018-08-22T13:25:16.470Z,3.70
2018-08-22T13:27:44.653Z,4.13
2018-08-22T13:30:13.404Z,3.80
2018-08-22T13:32:41.853Z,4.33
2018-08-22T13:35:10.450Z,4.30
2018-08-22T13:37:39.267Z,4.20
2018-08-22T13:40:08.660Z,4.12
2018-08-22T13:42:37.316Z,4.00
2018-08-22T13:45:06.553Z,3.80
2018-08-22T13:47:35.299Z,3.70
2018-08-22T13:50:03.341Z,3.90
2018-08-22T13:52:31.303Z,3.65
2018-08-22T13:54:59.233Z,3.70
2018-08-22T13:57:27.306Z,3.90
2018-08-22T13:59:55.275Z,3.87
2018-08-22T14:02:23.186Z,4.30
2018-08-22T14:04:51.201Z,4.10
2018-08-22T14:07:19.174Z,4.10
2018-08-22T14:09:47.244Z,4.10
2018-08-22T14:12:15.698Z,3.97
2018-08-22T14:14:44.214Z,4.10
2018-08-22T14:17:13.205Z,4.23
2018-08-22T14:19:41.397Z,4.20
2018-08-22T14:22:09.779Z,3.90
2018-08-22T14:24:38.214Z,4.17
2018-08-22T14:27:06.862Z,4.03
2018-08-22T14:29:34.907Z,4.10
2018-08-22T14:32:03.148Z,4.10
2018-08-22T14:34:31.114Z,4.20
2018-08-22T14:36:59.231Z,3.93
2018-08-22T14:39:27.219Z,3.80
2018-08-22T14:41:57.140Z,3.90
2018-08-22T14:44:25.668Z,4.20
2018-08-22T14:46:54.376Z,4.27
2018-08-22T14:49:22.794Z,3.80
2018-08-22T14:51:50.885Z,4.07
2018-08-22T14:54:18.948Z,3.90
2018-08-22T14:56:47.303Z,4.20
2018-08-22T14:59:15.373Z,4.00
2018-08-22T15:01:43.598Z,4.27
2018-08-22T15:04:11.797Z,4.00
2018-08-22T15:06:40.391Z,3.90
2018-08-22T15:09:14.348Z,3.93
2018-08-22T15:11:42.389Z,4.40
2018-08-22T15:14:10.720Z,4.17
2018-08-22T15:16:38.958Z,3.80
2018-08-22T15:19:07.672Z,4.13
2018-08-22T15:21:36.496Z,3.83
2018-08-22T15:24:04.842Z,4.20
2018-08-22T15:26:33.028Z,4.00
2018-08-22T15:29:01.322Z,3.70
2018-08-22T15:31:29.760Z,4.30
2018-08-22T15:33:59.953Z,3.87
2018-08-22T15:36:28.162Z,4.03
2018-08-22T15:38:58.560Z,3.97
2018-08-22T15:41:27.774Z,4.30
2018-08-22T15:43:55.948Z,3.90
2018-08-22T15:46:24.311Z,3.87
2018-08-22T15:48:52.249Z,4.03
2018-08-22T15:51:20.212Z,3.97
2018-08-22T15:54:14.178Z,3.60
2018-08-22T15:56:43.059Z,3.77
2018-08-22T15:59:12.143Z,4.40
2018-08-22T16:01:41.323Z,4.17
2018-08-22T16:04:10.447Z,4.10
2018-08-22T16:06:39.709Z,4.30
2018-08-22T16:09:20.602Z,3.90
2018-08-22T16:11:48.470Z,4.40
2018-08-22T16:14:16.880Z,4.70
2018-08-22T16:16:45.188Z,4.50
2018-08-22T16:19:13.625Z,4.10
2018-08-22T16:21:42.242Z,4.43
2018-08-22T16:24:11.176Z,4.23
2018-08-22T16:26:39.937Z,3.90
2018-08-22T16:29:09.182Z,3.90
2018-08-22T16:31:44.776Z,4.47
2018-08-22T16:34:13.957Z,4.50
2018-08-22T16:36:42.288Z,4.20
2018-08-22T16:39:11.504Z,4.53
2018-08-22T16:41:40.068Z,4.67
2018-08-22T16:44:09.552Z,4.67
2018-08-22T16:46:38.088Z,4.70
2018-08-22T16:49:06.744Z,6.77
2018-08-22T16:51:34.837Z,21.73
2018-08-22T16:54:09.806Z,4.90
2018-08-22T16:56:38.794Z,7.17
2018-08-22T16:59:09.433Z,8.27
2018-08-22T17:01:40.693Z,5.33
2018-08-22T17:04:10.591Z,5.73
2018-08-22T17:06:39.523Z,4.67
2018-08-22T17:09:10.285Z,4.60
2018-08-22T17:11:38.874Z,4.47
2018-08-22T17:14:08.237Z,4.87
2018-08-22T17:16:37.308Z,4.50
2018-08-22T17:19:05.629Z,5.93
2018-08-22T17:21:33.644Z,4.40
2018-08-22T17:24:01.831Z,4.80
2018-08-22T17:26:29.808Z,5.30
2018-08-22T17:28:58.886Z,5.23
2018-08-22T17:31:28.219Z,5.13
2018-08-22T17:33:57.568Z,4.93
2018-08-22T17:36:25.513Z,4.57
2018-08-22T17:38:55.679Z,4.50
2018-08-22T17:41:26.620Z,4.17
2018-08-22T17:44:11.509Z,4.57
2018-08-22T17:46:44.473Z,4.60
2018-08-22T17:49:15.177Z,4.73
2018-08-22T17:51:59.354Z,5.10
2018-08-22T17:54:28.075Z,4.43
2018-08-22T17:57:09.665Z,4.60
2018-08-22T17:59:40.187Z,4.00
2018-08-22T18:02:09.623Z,4.47
2018-08-22T18:04:59.793Z,4.80
2018-08-22T18:07:27.909Z,4.60
2018-08-22T18:09:56.341Z,4.40
2018-08-22T18:12:27.104Z,4.70
2018-08-22T18:15:01.793Z,4.33
2018-08-22T18:17:30.586Z,4.20
2018-08-22T18:19:58.969Z,4.40
2018-08-22T18:22:37.566Z,5.13
2018-08-22T18:25:09.436Z,4.60
2018-08-22T18:27:41.587Z,4.33
2018-08-22T18:30:12.927Z,4.23
2018-08-22T18:32:42.184Z,4.30
2018-08-22T18:35:12.158Z,4.30
2018-08-22T18:37:41.857Z,4.37
2018-08-22T18:40:19.961Z,4.60
2018-08-22T18:42:53.341Z,4.10
2018-08-22T18:45:22.220Z,4.80
2018-08-22T19:01:19.367Z,4.73
2018-08-22T19:03:47.340Z,4.87
2018-08-22T19:06:15.358Z,4.73
2018-08-22T19:08:43.448Z,4.93
2018-08-22T19:11:11.756Z,4.97
2018-08-22T19:13:39.988Z,4.47
2018-08-22T19:16:09.374Z,4.73
2018-08-22T19:18:37.450Z,4.77
2018-08-22T19:21:06.906Z,4.10
2018-08-22T19:23:35.877Z,4.73
2018-08-22T19:26:05.138Z,4.23
2018-08-22T19:28:47.504Z,4.70
2018-08-22T19:31:15.649Z,4.40
2018-08-22T19:33:43.845Z,4.23
2018-08-22T19:36:12.179Z,4.10
2018-08-22T19:38:40.338Z,4.37
2018-08-22T19:41:19.962Z,4.03
2018-08-22T19:43:47.987Z,4.50
2018-08-22T19:46:15.943Z,4.43
2018-08-22T19:48:44.099Z,4.40
2018-08-22T19:51:14.217Z,5.00
2018-08-22T19:54:00.155Z,5.33
2018-08-22T19:56:29.116Z,5.67
2018-08-22T19:58:57.500Z,5.60
2018-08-22T20:01:25.702Z,5.73
2018-08-22T20:06:48.923Z,4.93
2018-08-22T20:09:16.596Z,4.67
2018-08-22T20:11:44.587Z,5.13
2018-08-22T20:14:12.640Z,5.10
2018-08-22T20:16:40.905Z,5.47
2018-08-22T20:19:09.159Z,5.90
2018-08-22T20:21:40.140Z,5.70
2018-08-22T20:24:10.197Z,5.70
2018-08-22T20:26:43.021Z,5.33
2018-08-22T20:29:11.639Z,5.50
2018-08-22T20:31:40.039Z,5.87
2018-08-22T20:34:15.599Z,5.40
2018-08-22T20:36:45.404Z,4.83
2018-08-22T20:39:13.985Z,5.20
2018-08-22T20:41:42.674Z,5.93
2018-08-22T20:44:15.930Z,5.73
2018-08-22T20:46:44.937Z,5.50
2018-08-22T20:49:14.457Z,5.63
2018-08-22T20:51:42.697Z,5.57
2018-08-22T20:54:13.084Z,4.90
2018-08-22T20:56:47.543Z,4.93
2018-08-22T20:59:21.657Z,5.43
2018-08-22T21:01:54.808Z,4.87
2018-08-22T21:04:31.342Z,5.93
2018-08-22T21:07:00.842Z,5.50
2018-08-22T21:09:28.750Z,5.83
2018-08-22T21:12:01.059Z,6.00
2018-08-22T21:14:30.122Z,5.80
2018-08-22T21:16:58.173Z,5.43
2018-08-22T21:19:26.199Z,5.63
2018-08-22T21:22:00.060Z,5.50
2018-08-22T21:24:28.222Z,5.70
2018-08-22T21:26:56.229Z,5.80
2018-08-22T21:29:24.146Z,6.07
2018-08-22T21:31:52.150Z,5.97
2018-08-22T21:34:20.200Z,6.50
2018-08-22T21:36:48.673Z,5.80
2018-08-22T21:39:24.976Z,6.23
2018-08-22T21:41:53.101Z,5.93
2018-08-22T21:44:22.035Z,5.30
2018-08-22T21:46:58.539Z,5.83
2018-08-22T21:49:26.860Z,5.30
2018-08-22T21:51:59.485Z,5.10
2018-08-22T21:54:27.669Z,5.40
2018-08-22T21:56:55.644Z,4.73
2018-08-22T21:59:23.570Z,5.23
2018-08-22T22:01:57.237Z,5.10
2018-08-22T22:04:30.909Z,5.20
2018-08-22T22:06:58.687Z,5.70
2018-08-22T22:09:26.527Z,5.23
2018-08-22T22:11:58.008Z,5.67
2018-08-22T22:14:33.948Z,5.60
2018-08-22T22:17:02.828Z,6.53
2018-08-22T22:19:32.008Z,6.13
2018-08-22T22:22:00.489Z,6.40
2018-08-22T22:24:28.518Z,5.80
2018-08-22T22:26:56.551Z,5.77
2018-08-22T22:29:26.946Z,5.80
2018-08-22T22:31:54.830Z,5.83
2018-08-22T22:34:22.553Z,5.23
2018-08-22T22:36:50.464Z,5.27
2018-08-22T22:39:34.146Z,5.63
2018-08-22T22:42:39.197Z,6.10
2018-08-22T22:45:07.198Z,5.67
2018-08-22T22:47:35.792Z,5.37
2018-08-22T22:50:03.913Z,5.00
2018-08-22T22:52:35.907Z,5.50
2018-08-22T22:55:05.181Z,5.30
2018-08-22T22:57:34.530Z,5.40
2018-08-22T23:00:03.423Z,5.27
2018-08-22T23:02:32.134Z,5.00
2018-08-22T23:05:01.008Z,5.30
2018-08-22T23:07:30.229Z,5.10
2018-08-22T23:09:59.360Z,5.53
2018-08-22T23:12:33.694Z,5.00
2018-08-22T23:15:01.636Z,5.67
2018-08-22T23:17:29.506Z,5.60
2018-08-22T23:20:14.116Z,5.43
2018-08-22T23:22:42.260Z,5.37
2018-08-22T23:25:10.914Z,5.43
2018-08-22T23:27:40.084Z,5.83
2018-08-22T23:30:08.872Z,5.13
2018-08-22T23:32:37.901Z,5.23
2018-08-22T23:35:19.201Z,5.10
2018-08-22T23:37:52.059Z,5.00
2018-08-22T23:40:20.985Z,5.00
2018-08-22T23:42:48.837Z,5.20
2018-08-22T23:45:16.997Z,5.07
2018-08-22T23:47:45.062Z,5.33
2018-08-22T23:50:13.278Z,5.30
2018-08-22T23:52:46.805Z,5.00
2018-08-22T23:55:14.800Z,5.43
2018-08-22T23:57:42.729Z,4.97
